Time;durP1;ratioP1;P1;durP2;ratioP2;P2;SDS_P1;SDS_P2;PMS_P1;PMS_P2;Temp;Humidity;BMP_temperature;BMP_pressure;BME280_temperature;BME280_humidity;BME280_pressure;Samples;Min_cycle;Max_cycle;Signal;HPM_P1;HPM_P2
2022/10/31 00:00:26;;;;;;;14.23;7.05;;;15.60;99.90;;;;;;4134573;28;20212;-94
2022/10/31 00:02:27;;;;;;;18.52;6.95;;;15.60;99.90;;;;;;4150431;28;20232;-94
2022/10/31 00:04:28;;;;;;;16.45;6.57;;;15.60;99.90;;;;;;4118538;28;20170;-90
2022/10/31 00:06:29;;;;;;;19.60;6.82;;;15.50;99.90;;;;;;4150758;28;20259;-94
2022/10/31 00:08:30;;;;;;;13.35;6.32;;;15.50;99.90;;;;;;4118396;28;20340;-89
2022/10/31 00:10:30;;;;;;;17.30;7.50;;;15.40;99.90;;;;;;4118076;28;20178;-90
2022/10/31 00:12:31;;;;;;;15.57;7.03;;;15.50;99.90;;;;;;4117887;28;20194;-90
2022/10/31 00:14:32;;;;;;;15.50;6.93;;;15.40;99.90;;;;;;4150384;28;20192;-92
2022/10/31 00:16:32;;;;;;;14.45;6.88;;;15.40;99.90;;;;;;4118421;28;20217;-91
2022/10/31 00:18:33;;;;;;;17.50;7.35;;;15.40;99.90;;;;;;4118067;28;20186;-94
2022/10/31 00:20:34;;;;;;;14.85;7.50;;;15.50;99.90;;;;;;4118168;28;20663;-94
2022/10/31 00:22:35;;;;;;;18.23;7.38;;;15.50;99.90;;;;;;4134068;28;20646;-93
2022/10/31 00:24:35;;;;;;;16.25;7.85;;;15.50;99.90;;;;;;4150259;28;20177;-93
2022/10/31 00:26:36;;;;;;;13.43;6.93;;;15.40;99.90;;;;;;4118072;28;20249;-94
2022/10/31 00:28:37;;;;;;;17.90;7.78;;;15.30;99.90;;;;;;4117856;28;20175;-93
2022/10/31 00:30:38;;;;;;;14.95;7.03;;;15.10;99.90;;;;;;4134035;28;20184;-90
2022/10/31 00:32:38;;;;;;;17.70;7.03;;;15.00;99.90;;;;;;4117893;28;20229;-95
2022/10/31 00:34:39;;;;;;;19.08;7.20;;;15.00;99.90;;;;;;4134043;28;20704;-95
2022/10/31 00:36:40;;;;;;;17.80;7.68;;;14.90;99.90;;;;;;4117854;28;20232;-95
2022/10/31 00:38:42;;;;;;;18.55;7.82;;;14.80;99.90;;;;;;4133734;28;20599;-91
2022/10/31 00:40:42;;;;;;;14.27;7.05;;;14.70;99.90;;;;;;4117776;28;20170;-90
2022/10/31 00:42:43;;;;;;;18.48;8.07;;;14.70;99.90;;;;;;4133920;28;20708;-91
2022/10/31 00:44:44;;;;;;;16.10;7.30;;;14.70;99.90;;;;;;4117808;28;20170;-93
2022/10/31 00:46:45;;;;;;;16.30;7.97;;;14.60;99.90;;;;;;4133895;28;20170;-95
2022/10/31 00:48:45;;;;;;;20.40;8.38;;;14.60;99.90;;;;;;4117657;28;20233;-91
2022/10/31 00:50:46;;;;;;;13.30;7.85;;;14.60;99.90;;;;;;4133746;28;20205;-94
2022/10/31 00:52:47;;;;;;;17.30;7.90;;;14.70;99.90;;;;;;4133755;28;20198;-91
2022/10/31 00:54:47;;;;;;;15.95;7.93;;;14.60;99.90;;;;;;4117681;28;20531;-90
2022/10/31 00:56:48;;;;;;;18.98;8.75;;;14.50;99.90;;;;;;4117636;28;20221;-94
2022/10/31 00:58:49;;;;;;;17.23;8.07;;;14.50;99.90;;;;;;4117300;28;20730;-91
2022/10/31 01:00:56;;;;;;;19.60;7.90;;;14.50;99.90;;;;;;4132866;28;20272;-94
2022/10/31 01:02:57;;;;;;;17.58;8.38;;;14.50;99.90;;;;;;4117393;28;20209;-89
2022/10/31 01:04:57;;;;;;;15.45;8.40;;;14.40;99.90;;;;;;4149682;28;20208;-93
2022/10/31 01:06:58;;;;;;;19.85;8.77;;;14.40;99.90;;;;;;4117490;28;20167;-94
2022/10/31 01:08:59;;;;;;;21.13;8.80;;;14.40;99.90;;;;;;4116939;28;20194;-90
2022/10/31 01:11:07;;;;;;;17.52;8.60;;;14.40;99.90;;;;;;4133174;28;20193;-90
2022/10/31 01:13:08;;;;;;;20.23;8.52;;;14.40;99.90;;;;;;4133180;28;20169;-91
2022/10/31 01:15:10;;;;;;;21.35;9.30;;;14.40;99.90;;;;;;4149221;28;20566;-90
2022/10/31 01:17:11;;;;;;;21.67;9.23;;;14.30;99.90;;;;;;4117075;28;20706;-90
2022/10/31 01:19:12;;;;;;;20.25;9.55;;;14.20;99.90;;;;;;4133257;28;20178;-93
2022/10/31 01:21:16;;;;;;;18.50;9.35;;;14.20;99.90;;;;;;4117228;28;20209;-90
2022/10/31 01:23:17;;;;;;;14.10;8.15;;;14.20;99.90;;;;;;4133264;28;20186;-94
2022/10/31 01:25:17;;;;;;;12.48;8.32;;;14.30;99.90;;;;;;4149507;28;20169;-94
2022/10/31 01:27:18;;;;;;;21.55;8.45;;;14.20;99.90;;;;;;4133521;28;20177;-93
2022/10/31 01:29:20;;;;;;;20.15;9.05;;;14.30;99.90;;;;;;4117010;28;20178;-94
2022/10/31 01:31:24;;;;;;;17.48;7.63;;;14.10;99.90;;;;;;4133101;28;20173;-94
2022/10/31 01:33:24;;;;;;;18.23;8.35;;;14.20;99.90;;;;;;4133093;28;20170;-94
2022/10/31 01:35:25;;;;;;;23.20;9.50;;;14.20;99.90;;;;;;4132864;28;20181;-95
2022/10/31 01:37:26;;;;;;;15.30;7.75;;;14.10;99.90;;;;;;4116928;28;20731;-95
2022/10/31 01:39:27;;;;;;;19.17;7.63;;;14.20;99.90;;;;;;4132530;28;20702;-90
2022/10/31 01:41:30;;;;;;;20.08;8.90;;;14.20;99.90;;;;;;4116597;28;20190;-90
2022/10/31 01:43:44;;;;;;;17.90;7.65;;;14.20;99.90;;;;;;4132849;28;20540;-92
2022/10/31 01:45:52;;;;;;;18.33;8.80;;;14.20;99.90;;;;;;4132542;28;20626;-95
2022/10/31 01:47:53;;;;;;;18.25;8.23;;;14.20;99.90;;;;;;4132967;28;20184;-94
2022/10/31 01:49:58;;;;;;;17.85;8.27;;;14.20;99.90;;;;;;4132790;28;20212;-90
2022/10/31 01:52:16;;;;;;;15.35;7.60;;;14.20;99.90;;;;;;4132566;28;20212;-93
2022/10/31 01:54:21;;;;;;;18.23;8.52;;;14.20;99.90;;;;;;4133090;28;20221;-93
2022/10/31 01:56:22;;;;;;;22.90;8.43;;;14.20;99.90;;;;;;4132913;28;20243;-94
2022/10/31 01:58:27;;;;;;;19.83;7.72;;;14.20;99.90;;;;;;4148971;28;20255;-94
2022/10/31 02:00:28;;;;;;;15.02;8.05;;;14.20;99.90;;;;;;4132639;28;20212;-94
2022/10/31 02:02:31;;;;;;;16.85;7.82;;;14.20;99.90;;;;;;4132671;28;20201;-95
2022/10/31 02:04:33;;;;;;;12.93;7.93;;;14.20;99.90;;;;;;4132574;28;20714;-90
2022/10/31 02:06:42;;;;;;;20.60;7.65;;;14.20;99.90;;;;;;4116585;28;20233;-93
2022/10/31 02:08:46;;;;;;;18.60;8.50;;;14.10;99.90;;;;;;4132677;28;20193;-93
2022/10/31 02:10:47;;;;;;;22.80;8.27;;;14.10;99.90;;;;;;4116261;28;20544;-94
2022/10/31 02:12:52;;;;;;;16.63;8.18;;;14.10;99.90;;;;;;4116105;28;20194;-93
2022/10/31 02:14:53;;;;;;;19.95;8.35;;;14.10;99.90;;;;;;4116155;28;20202;-90
2022/10/31 02:16:54;;;;;;;18.45;7.28;;;14.00;99.90;;;;;;4131878;28;20213;-93
2022/10/31 02:18:55;;;;;;;18.98;8.32;;;14.00;99.90;;;;;;4132480;28;20269;-94
2022/10/31 02:21:13;;;;;;;18.25;8.18;;;14.00;99.90;;;;;;4132293;28;20214;-90
2022/10/31 02:23:13;;;;;;;19.98;8.13;;;14.00;99.90;;;;;;4132379;28;20372;-90
2022/10/31 02:25:41;;;;;;;19.02;7.80;;;14.00;99.90;;;;;;4116210;28;20170;-93
2022/10/31 02:28:03;;;;;;;15.07;7.68;;;13.90;99.90;;;;;;4148512;28;20176;-90
2022/10/31 02:30:20;;;;;;;21.80;7.75;;;13.80;99.90;;;;;;4148421;28;20200;-91
2022/10/31 02:32:40;;;;;;;20.40;7.47;;;13.80;99.90;;;;;;4132149;28;20212;-90
2022/10/31 02:34:51;;;;;;;22.08;7.88;;;13.70;99.90;;;;;;4132156;28;20180;-91
2022/10/31 02:37:11;;;;;;;18.33;8.40;;;13.70;99.90;;;;;;4132022;28;20257;-90
2022/10/31 02:39:26;;;;;;;23.48;8.57;;;13.80;99.90;;;;;;4132257;28;20166;-93
2022/10/31 02:41:37;;;;;;;21.08;8.85;;;13.80;99.90;;;;;;4132320;28;20201;-94
2022/10/31 02:43:57;;;;;;;15.80;7.93;;;13.80;99.90;;;;;;4132386;28;20268;-91
2022/10/31 02:46:44;;;;;;;18.23;8.27;;;13.80;99.90;;;;;;4148592;28;20263;-90
2022/10/31 02:48:48;;;;;;;23.08;8.07;;;13.80;99.90;;;;;;4132326;28;20184;-89
2022/10/31 02:50:55;;;;;;;25.52;8.18;;;13.70;99.90;;;;;;4132402;28;20174;-93
2022/10/31 02:52:56;;;;;;;18.58;7.78;;;13.70;99.90;;;;;;4132091;28;20288;-94
2022/10/31 02:55:10;;;;;;;18.80;7.80;;;13.70;99.90;;;;;;4132006;28;20196;-90
2022/10/31 02:57:13;;;;;;;16.00;8.13;;;13.70;99.90;;;;;;4132107;28;20216;-90
2022/10/31 02:59:15;;;;;;;25.67;8.63;;;13.70;99.90;;;;;;4131792;28;20184;-90
2022/10/31 03:01:48;;;;;;;15.55;7.80;;;13.80;99.90;;;;;;4131670;28;20182;-90
2022/10/31 03:03:51;;;;;;;21.20;8.15;;;13.80;99.90;;;;;;4131968;28;20185;-94
2022/10/31 03:05:59;;;;;;;17.98;8.48;;;13.80;99.90;;;;;;4131986;28;20170;-93
2022/10/31 03:08:35;;;;;;;21.17;8.68;;;13.70;99.90;;;;;;4115564;28;20185;-94
2022/10/31 03:10:46;;;;;;;19.58;7.82;;;13.70;99.90;;;;;;4131900;28;20276;-90
2022/10/31 03:12:53;;;;;;;18.85;8.10;;;13.60;99.90;;;;;;4131830;28;20196;-91
2022/10/31 03:15:02;;;;;;;14.30;8.07;;;13.60;99.90;;;;;;4147903;28;20181;-95
2022/10/31 03:17:07;;;;;;;14.38;7.35;;;13.50;99.90;;;;;;4131698;28;20228;-93
2022/10/31 03:19:13;;;;;;;17.42;7.60;;;13.50;99.90;;;;;;4131738;28;20169;-95
2022/10/31 03:21:21;;;;;;;26.60;8.88;;;13.40;99.90;;;;;;4131764;28;20184;-90
2022/10/31 03:23:24;;;;;;;22.52;8.07;;;13.50;99.90;;;;;;4133320;28;20188;-90
2022/10/31 03:25:26;;;;;;;22.55;8.00;;;13.50;99.90;;;;;;4134874;28;20173;-91
2022/10/31 03:27:33;;;;;;;16.63;8.60;;;13.50;99.90;;;;;;4134963;28;20173;-90
2022/10/31 03:29:37;;;;;;;20.38;8.57;;;13.50;99.90;;;;;;4134716;28;20177;-94
2022/10/31 03:31:45;;;;;;;20.27;8.35;;;13.50;99.90;;;;;;4134727;28;20724;-95
2022/10/31 03:33:50;;;;;;;15.32;8.18;;;13.60;99.90;;;;;;4134951;28;20264;-93
2022/10/31 03:35:54;;;;;;;18.38;8.10;;;13.50;99.90;;;;;;4134737;28;20177;-90
2022/10/31 03:37:56;;;;;;;22.65;8.68;;;13.50;99.90;;;;;;4134846;28;20600;-90
2022/10/31 03:39:59;;;;;;;23.40;8.70;;;13.50;99.90;;;;;;4134895;28;20680;-92
2022/10/31 03:42:06;;;;;;;22.38;8.38;;;13.60;99.90;;;;;;4134844;28;20201;-91
2022/10/31 03:44:14;;;;;;;22.77;8.23;;;13.60;99.90;;;;;;4134655;28;20629;-93
2022/10/31 03:46:16;;;;;;;12.82;8.05;;;13.50;99.90;;;;;;4134730;28;20200;-90
2022/10/31 03:48:20;;;;;;;22.80;7.90;;;13.40;99.90;;;;;;4151086;28;20180;-90
2022/10/31 03:50:24;;;;;;;21.90;8.55;;;13.40;99.90;;;;;;4134660;28;20192;-91
2022/10/31 03:52:51;;;;;;;20.25;8.65;;;13.40;99.90;;;;;;4134668;28;20208;-90
2022/10/31 03:55:21;;;;;;;20.92;8.32;;;13.50;99.90;;;;;;4134527;28;20193;-94
2022/10/31 03:57:43;;;;;;;21.33;8.80;;;13.50;99.90;;;;;;4132264;28;20221;-90
2022/10/31 03:59:51;;;;;;;16.50;7.75;;;13.50;99.90;;;;;;4118479;28;20174;-90
2022/10/31 04:01:57;;;;;;;18.60;8.27;;;13.50;99.90;;;;;;4134393;28;20197;-90
2022/10/31 04:03:58;;;;;;;20.15;8.38;;;13.40;99.90;;;;;;4118248;28;20174;-90
2022/10/31 04:06:04;;;;;;;19.80;7.68;;;13.30;99.90;;;;;;4150744;28;20184;-91
2022/10/31 04:08:14;;;;;;;15.13;7.80;;;13.40;99.90;;;;;;4134467;28;20201;-94
2022/10/31 04:10:16;;;;;;;15.05;7.13;;;13.40;99.90;;;;;;4134139;28;20511;-95
2022/10/31 04:12:18;;;;;;;14.35;7.93;;;13.50;99.90;;;;;;4150124;28;20741;-91
2022/10/31 04:14:46;;;;;;;16.52;7.50;;;13.50;99.90;;;;;;4129161;28;20178;-93
2022/10/31 04:16:47;;;;;;;19.73;7.95;;;13.50;99.90;;;;;;4134200;28;20271;-94
2022/10/31 04:18:48;;;;;;;20.08;8.70;;;13.50;99.90;;;;;;4118224;28;20186;-92
2022/10/31 04:21:04;;;;;;;12.43;6.97;;;13.60;99.90;;;;;;4118316;28;20224;-91
2022/10/31 04:23:18;;;;;;;15.02;7.40;;;13.60;99.90;;;;;;4133953;28;20312;-90
2022/10/31 04:25:19;;;;;;;15.60;7.20;;;13.50;99.90;;;;;;4134076;28;20220;-90
2022/10/31 04:27:19;;;;;;;14.40;7.15;;;13.40;99.90;;;;;;4134054;28;20166;-91
2022/10/31 04:29:20;;;;;;;14.57;7.28;;;13.50;99.90;;;;;;4117928;28;20186;-90
2022/10/31 04:31:21;;;;;;;17.02;8.65;;;13.40;99.90;;;;;;4133807;28;20635;-91
2022/10/31 04:33:23;;;;;;;14.13;8.52;;;13.40;99.90;;;;;;4118234;28;20233;-94
2022/10/31 04:35:24;;;;;;;18.15;8.13;;;13.40;99.90;;;;;;4134168;28;20181;-90
2022/10/31 04:37:26;;;;;;;16.13;8.30;;;13.40;99.90;;;;;;4150411;28;20736;-90
2022/10/31 04:39:27;;;;;;;18.25;7.78;;;13.40;99.90;;;;;;4117986;28;20174;-91
2022/10/31 04:41:48;;;;;;;17.17;8.40;;;13.40;99.90;;;;;;4134098;28;20197;-94
2022/10/31 04:43:49;;;;;;;17.73;7.95;;;13.50;99.90;;;;;;4133987;28;20172;-90
2022/10/31 04:45:50;;;;;;;15.77;7.07;;;13.50;99.90;;;;;;4117530;28;20178;-91
2022/10/31 04:47:51;;;;;;;19.13;6.18;;;13.60;99.90;;;;;;4117623;28;20233;-92
2022/10/31 04:49:51;;;;;;;10.43;5.55;;;13.40;99.90;;;;;;4150030;28;20180;-90
2022/10/31 04:51:52;;;;;;;11.10;6.00;;;13.30;99.90;;;;;;4117673;28;20194;-90
2022/10/31 04:53:53;;;;;;;10.73;6.00;;;13.10;99.90;;;;;;4117538;28;20190;-90
2022/10/31 04:56:16;;;;;;;13.50;7.85;;;13.10;99.90;;;;;;4133234;28;20240;-90
2022/10/31 04:58:20;;;;;;;11.98;6.90;;;13.00;99.90;;;;;;4133941;28;20198;-90
2022/10/31 05:00:22;;;;;;;12.73;7.85;;;12.80;99.90;;;;;;4117582;28;20174;-91
2022/10/31 05:02:24;;;;;;;16.10;8.00;;;12.90;99.90;;;;;;4117761;28;20623;-93
2022/10/31 05:04:29;;;;;;;11.43;7.82;;;12.90;99.90;;;;;;4149212;28;20177;-91
2022/10/31 05:06:31;;;;;;;14.20;7.43;;;13.00;99.90;;;;;;4117622;28;20170;-90
2022/10/31 05:08:33;;;;;;;21.05;8.13;;;13.10;99.90;;;;;;4133718;28;20259;-91
2022/10/31 05:10:37;;;;;;;23.40;6.78;;;13.10;99.90;;;;;;4149366;28;20196;-91
2022/10/31 05:12:45;;;;;;;10.75;6.97;;;13.00;99.90;;;;;;4149584;28;20280;-92
2022/10/31 05:15:16;;;;;;;12.93;6.85;;;13.00;99.90;;;;;;4133483;28;20180;-95
2022/10/31 05:17:35;;;;;;;16.42;8.00;;;13.00;99.90;;;;;;4133742;28;20309;-95
2022/10/31 05:19:58;;;;;;;17.20;8.18;;;13.00;99.90;;;;;;4133573;28;20182;-91
2022/10/31 05:22:31;;;;;;;16.20;8.25;;;12.90;99.90;;;;;;4125079;28;20681;-90
2022/10/31 05:24:32;;;;;;;14.05;8.40;;;12.80;99.90;;;;;;4133072;28;20178;-91
2022/10/31 05:26:33;;;;;;;17.27;8.60;;;12.90;99.90;;;;;;4133216;28;20174;-90
2022/10/31 05:28:34;;;;;;;12.93;8.20;;;12.90;99.90;;;;;;4116960;28;20551;-90
2022/10/31 05:30:35;;;;;;;15.88;8.55;;;13.00;99.90;;;;;;4133053;28;20185;-90
2022/10/31 05:32:42;;;;;;;15.30;9.23;;;13.10;99.90;;;;;;4133423;28;20585;-93
2022/10/31 05:35:24;;;;;;;18.02;8.82;;;13.10;99.90;;;;;;4136517;28;20189;-91
2022/10/31 05:37:53;;;;;;;14.93;8.35;;;13.10;99.90;;;;;;4137061;28;20192;-93
2022/10/31 05:39:54;;;;;;;18.50;8.27;;;13.20;99.90;;;;;;4116985;28;20177;-91
2022/10/31 05:41:55;;;;;;;26.30;9.25;;;13.20;99.90;;;;;;4116975;28;20190;-91
2022/10/31 05:44:00;;;;;;;17.10;9.18;;;13.20;99.90;;;;;;4132939;28;20173;-90
2022/10/31 05:46:03;;;;;;;23.02;8.55;;;13.30;99.90;;;;;;4132241;28;20614;-90
2022/10/31 05:48:24;;;;;;;19.30;9.02;;;13.30;99.90;;;;;;4146603;28;20168;-90
2022/10/31 05:51:03;;;;;;;14.98;8.35;;;13.30;99.90;;;;;;4100512;29;20186;-90
2022/10/31 05:53:05;;;;;;;16.85;9.23;;;13.30;99.90;;;;;;4084426;29;20691;-91
2022/10/31 05:55:10;;;;;;;18.77;9.38;;;13.40;99.90;;;;;;4084511;29;20589;-90
2022/10/31 05:57:14;;;;;;;15.65;8.65;;;13.50;99.90;;;;;;4117022;28;20248;-90
2022/10/31 05:59:15;;;;;;;16.08;9.15;;;13.50;99.90;;;;;;4132692;28;20181;-90
2022/10/31 06:01:15;;;;;;;15.90;8.80;;;13.50;99.90;;;;;;4132693;28;20212;-90
2022/10/31 06:03:19;;;;;;;23.08;9.52;;;13.50;99.90;;;;;;4116834;28;20217;-91
2022/10/31 06:05:27;;;;;;;19.40;8.68;;;13.50;99.90;;;;;;4132496;28;20173;-90
2022/10/31 06:07:33;;;;;;;12.27;8.00;;;13.50;99.90;;;;;;4132210;28;20174;-91
2022/10/31 06:09:34;;;;;;;18.85;9.18;;;13.60;99.90;;;;;;4132463;28;20209;-92
2022/10/31 06:11:35;;;;;;;15.00;8.82;;;13.60;99.90;;;;;;4132449;28;20192;-90
2022/10/31 06:13:36;;;;;;;12.95;8.23;;;13.60;99.90;;;;;;4132705;28;20180;-90
2022/10/31 06:15:48;;;;;;;19.80;8.63;;;13.70;99.90;;;;;;4132432;28;20533;-90
2022/10/31 06:17:59;;;;;;;18.83;9.10;;;13.70;99.90;;;;;;4148597;28;20243;-91
2022/10/31 06:20:01;;;;;;;15.13;8.82;;;13.90;99.90;;;;;;4132315;28;20176;-90
2022/10/31 06:22:04;;;;;;;21.30;8.57;;;13.80;99.90;;;;;;4132067;28;20193;-90
2022/10/31 06:24:06;;;;;;;19.15;8.43;;;13.80;99.90;;;;;;4116396;28;20182;-89
2022/10/31 06:26:30;;;;;;;16.05;8.50;;;13.80;99.90;;;;;;4123176;28;20181;-89
2022/10/31 06:28:31;;;;;;;17.02;9.27;;;13.80;99.90;;;;;;4132291;28;20626;-91
2022/10/31 06:30:45;;;;;;;16.88;8.38;;;13.70;99.90;;;;;;4132479;28;20207;-90
2022/10/31 06:32:46;;;;;;;20.35;8.68;;;13.70;99.90;;;;;;4132353;28;20201;-94
2022/10/31 06:34:50;;;;;;;20.10;8.70;;;13.70;99.90;;;;;;4132456;28;20613;-90
2022/10/31 06:36:50;;;;;;;16.70;7.75;;;13.70;99.90;;;;;;4116256;28;20634;-90
2022/10/31 06:38:55;;;;;;;18.52;8.90;;;13.60;99.90;;;;;;4148227;28;20552;-95
2022/10/31 06:40:57;;;;;;;14.70;8.95;;;13.60;99.90;;;;;;4116504;28;20716;-90
2022/10/31 06:43:02;;;;;;;18.60;9.15;;;13.50;99.90;;;;;;4132384;28;20193;-90
2022/10/31 06:45:04;;;;;;;19.40;8.95;;;13.50;99.90;;;;;;4148407;28;20175;-89
2022/10/31 06:47:51;;;;;;;19.00;8.90;;;13.60;99.90;;;;;;4132525;28;20189;-89
2022/10/31 06:49:57;;;;;;;15.43;8.85;;;13.80;99.90;;;;;;4132455;28;20181;-90
2022/10/31 06:51:59;;;;;;;20.38;9.23;;;13.70;99.90;;;;;;4115999;28;20678;-90
2022/10/31 06:54:00;;;;;;;20.13;9.50;;;13.60;99.90;;;;;;4115972;28;20166;-90
2022/10/31 06:56:01;;;;;;;23.60;9.52;;;13.60;99.90;;;;;;4148193;28;20184;-90
2022/10/31 06:58:03;;;;;;;22.77;9.20;;;13.60;99.90;;;;;;4117057;28;20185;-90
2022/10/31 07:00:05;;;;;;;15.30;9.40;;;13.80;99.90;;;;;;4135280;28;20605;-90
2022/10/31 07:02:10;;;;;;;18.60;9.35;;;13.80;99.90;;;;;;4135131;28;20327;-90
2022/10/31 07:04:13;;;;;;;18.38;9.43;;;13.90;99.90;;;;;;4135509;28;20165;-90
2022/10/31 07:06:13;;;;;;;20.95;9.05;;;13.90;99.90;;;;;;4119420;28;20309;-94
2022/10/31 07:08:14;;;;;;;17.67;9.88;;;13.80;99.90;;;;;;4119242;28;20190;-90
2022/10/31 07:10:15;;;;;;;20.02;9.63;;;13.90;99.90;;;;;;4151503;28;20165;-89
2022/10/31 07:12:27;;;;;;;16.35;9.95;;;14.00;99.90;;;;;;4136752;28;20193;-90
2022/10/31 07:14:32;;;;;;;20.75;9.52;;;14.10;99.90;;;;;;4151009;28;20176;-90
2022/10/31 07:16:33;;;;;;;21.40;9.40;;;14.20;99.90;;;;;;4135222;28;20299;-90
2022/10/31 07:18:34;;;;;;;20.33;10.00;;;14.10;99.90;;;;;;4135138;28;20169;-94
2022/10/31 07:20:35;;;;;;;20.42;10.10;;;14.00;99.90;;;;;;4119398;28;20177;-91
2022/10/31 07:22:37;;;;;;;18.35;9.15;;;14.00;99.90;;;;;;4119358;28;20575;-90
2022/10/31 07:24:40;;;;;;;26.60;10.23;;;14.20;99.90;;;;;;4134886;28;20666;-90
2022/10/31 07:27:00;;;;;;;17.40;9.15;;;14.20;99.90;;;;;;4148920;28;20187;-91
2022/10/31 07:29:00;;;;;;;17.88;9.80;;;14.30;99.90;;;;;;4135093;28;20205;-90
2022/10/31 07:31:02;;;;;;;20.60;9.55;;;14.30;99.90;;;;;;4135449;28;20166;-90
2022/10/31 07:33:04;;;;;;;18.15;8.77;;;14.40;99.90;;;;;;4134888;28;20228;-90
2022/10/31 07:35:31;;;;;;;22.35;10.32;;;14.50;99.90;;;;;;4135295;28;20350;-90
2022/10/31 07:37:32;;;;;;;16.73;9.05;;;14.60;99.90;;;;;;4134879;28;20213;-90
2022/10/31 07:39:33;;;;;;;18.13;8.85;;;14.70;99.90;;;;;;4134899;28;20170;-90
2022/10/31 07:41:34;;;;;;;20.73;10.15;;;14.80;99.90;;;;;;4134765;28;20200;-90
2022/10/31 07:43:35;;;;;;;25.73;9.90;;;14.60;99.90;;;;;;4134836;28;20174;-91
2022/10/31 07:45:54;;;;;;;27.02;10.57;;;14.60;99.90;;;;;;4134962;28;20208;-90
2022/10/31 07:48:33;;;;;;;21.05;10.45;;;14.60;99.90;;;;;;4102290;29;20182;-90
2022/10/31 07:50:52;;;;;;;21.52;10.68;;;14.60;99.90;;;;;;4088809;29;20232;-93
2022/10/31 07:53:13;;;;;;;26.77;10.10;;;14.50;99.90;;;;;;4098321;28;20188;-90
2022/10/31 07:55:37;;;;;;;21.45;10.02;;;14.50;99.90;;;;;;4129540;28;20177;-90
2022/10/31 07:57:37;;;;;;;26.70;11.75;;;14.40;99.90;;;;;;4134501;28;20213;-90
2022/10/31 07:59:38;;;;;;;26.70;11.40;;;14.50;99.90;;;;;;4134541;28;20261;-90
2022/10/31 08:01:40;;;;;;;21.48;10.57;;;14.60;99.90;;;;;;4118489;28;20209;-90
2022/10/31 08:04:13;;;;;;;24.00;11.35;;;14.80;99.90;;;;;;4104019;28;20643;-89
2022/10/31 08:06:34;;;;;;;24.15;10.50;;;14.70;99.90;;;;;;4114852;28;20332;-93
2022/10/31 08:08:47;;;;;;;18.02;9.73;;;14.50;99.90;;;;;;4135379;28;20185;-88
2022/10/31 08:10:48;;;;;;;23.10;10.45;;;14.50;99.90;;;;;;4118237;28;20268;-90
2022/10/31 08:12:56;;;;;;;20.58;10.23;;;14.60;99.90;;;;;;4117978;28;20575;-90
2022/10/31 08:14:57;;;;;;;15.82;9.35;;;14.80;99.90;;;;;;4133924;28;20534;-91
2022/10/31 08:16:57;;;;;;;21.48;10.05;;;14.90;99.90;;;;;;4133800;28;20256;-91
2022/10/31 08:19:04;;;;;;;20.27;9.90;;;14.90;99.90;;;;;;4119134;28;20173;-91
2022/10/31 08:21:11;;;;;;;19.67;9.65;;;14.90;99.90;;;;;;4134184;28;20201;-93
2022/10/31 08:23:12;;;;;;;20.33;9.80;;;15.00;99.90;;;;;;4150603;28;20184;-95
2022/10/31 08:25:15;;;;;;;23.20;10.25;;;15.30;99.90;;;;;;4134088;28;20173;-94
2022/10/31 08:27:16;;;;;;;27.40;9.88;;;15.50;99.90;;;;;;4134123;28;20185;-91
2022/10/31 08:29:17;;;;;;;22.13;11.00;;;15.70;99.90;;;;;;4150487;28;20177;-92
2022/10/31 08:31:18;;;;;;;25.33;10.82;;;15.90;99.90;;;;;;4118009;28;20558;-91
2022/10/31 08:33:19;;;;;;;22.00;11.88;;;16.30;99.90;;;;;;4134069;28;20169;-93
2022/10/31 08:35:39;;;;;;;22.30;13.25;;;16.50;99.90;;;;;;4148217;28;20226;-91
2022/10/31 08:38:00;;;;;;;31.45;15.35;;;16.30;99.90;;;;;;4134180;28;20189;-94
2022/10/31 08:40:02;;;;;;;32.50;14.88;;;15.90;99.90;;;;;;4149921;28;20561;-94
2022/10/31 08:42:08;;;;;;;29.00;14.80;;;15.90;99.90;;;;;;4118159;28;20305;-91
2022/10/31 08:44:08;;;;;;;30.13;14.40;;;15.90;99.90;;;;;;4117786;28;20178;-91
2022/10/31 08:46:09;;;;;;;27.52;14.93;;;15.70;99.90;;;;;;4149950;28;20177;-91
2022/10/31 08:48:15;;;;;;;29.05;14.60;;;15.40;99.90;;;;;;4117497;28;20170;-91
2022/10/31 08:50:16;;;;;;;28.63;14.80;;;15.30;99.90;;;;;;4133667;28;20169;-91
2022/10/31 08:52:23;;;;;;;28.52;15.10;;;15.10;99.90;;;;;;4117713;28;20208;-91
2022/10/31 08:54:24;;;;;;;29.92;14.18;;;15.10;99.90;;;;;;4133555;28;20170;-90
2022/10/31 08:56:30;;;;;;;29.80;13.15;;;15.00;99.90;;;;;;4134019;28;20312;-94
2022/10/31 08:58:31;;;;;;;30.55;13.57;;;14.80;99.90;;;;;;4133686;28;20232;-92
2022/10/31 09:00:36;;;;;;;26.55;12.13;;;14.60;99.90;;;;;;4117865;28;20206;-90
2022/10/31 09:02:58;;;;;;;26.45;12.20;;;14.50;99.90;;;;;;4147745;28;20215;-91
2022/10/31 09:04:59;;;;;;;29.17;13.43;;;14.70;99.90;;;;;;4133755;28;20212;-90
2022/10/31 09:07:00;;;;;;;21.52;12.82;;;14.70;99.90;;;;;;4117214;28;20277;-91
2022/10/31 09:09:01;;;;;;;26.67;14.05;;;14.90;99.90;;;;;;4133303;28;20197;-93
2022/10/31 09:11:02;;;;;;;32.38;14.15;;;15.10;99.90;;;;;;4133593;28;20213;-91
2022/10/31 09:13:32;;;;;;;24.13;13.07;;;15.20;99.90;;;;;;4133590;28;20182;-91
2022/10/31 09:15:58;;;;;;;32.80;13.23;;;15.30;99.90;;;;;;4097402;28;20174;-91
2022/10/31 09:18:00;;;;;;;27.40;12.68;;;15.40;99.90;;;;;;4132966;28;20300;-91
2022/10/31 09:20:16;;;;;;;21.63;12.20;;;15.30;99.90;;;;;;4148891;28;20268;-90
2022/10/31 09:22:16;;;;;;;19.75;11.43;;;15.10;99.90;;;;;;4117031;28;20246;-96
2022/10/31 09:24:18;;;;;;;27.50;12.00;;;14.80;99.90;;;;;;4117088;28;20174;-95
2022/10/31 09:26:19;;;;;;;21.77;10.38;;;14.70;99.90;;;;;;4149286;28;20177;-91
2022/10/31 09:28:32;;;;;;;18.73;10.80;;;14.60;99.90;;;;;;4133412;28;20256;-92
2022/10/31 09:30:38;;;;;;;22.02;10.93;;;14.70;99.90;;;;;;4117801;28;20174;-91
2022/10/31 09:32:39;;;;;;;20.38;9.95;;;14.90;99.90;;;;;;4133229;28;20200;-90
2022/10/31 09:34:40;;;;;;;21.80;10.07;;;15.00;99.90;;;;;;4133308;28;20552;-91
2022/10/31 09:36:45;;;;;;;22.75;10.35;;;15.10;99.90;;;;;;4148923;28;20211;-91
2022/10/31 09:38:54;;;;;;;19.77;10.93;;;15.30;99.90;;;;;;4134108;28;20189;-96
2022/10/31 09:41:40;;;;;;;20.40;9.73;;;15.40;99.90;;;;;;4117029;28;20170;-95
2022/10/31 09:44:08;;;;;;;19.90;10.38;;;15.60;99.90;;;;;;4111820;28;20270;-95
2022/10/31 09:46:15;;;;;;;20.48;10.30;;;15.70;99.90;;;;;;4132776;28;20182;-91
2022/10/31 09:48:42;;;;;;;17.25;10.13;;;15.80;99.90;;;;;;4149082;28;20580;-90
2022/10/31 09:51:08;;;;;;;18.88;9.73;;;15.90;99.90;;;;;;4148919;28;20187;-90
2022/10/31 09:53:37;;;;;;;19.02;9.82;;;16.00;99.90;;;;;;4134191;28;20181;-90
2022/10/31 09:55:42;;;;;;;15.75;8.98;;;15.90;99.90;;;;;;4132502;28;20170;-91
2022/10/31 09:57:45;;;;;;;16.88;9.02;;;15.80;99.90;;;;;;4132538;28;20220;-91
2022/10/31 09:59:49;;;;;;;18.90;8.85;;;16.00;99.90;;;;;;4132500;28;20294;-90
2022/10/31 10:01:58;;;;;;;18.63;8.82;;;16.40;99.90;;;;;;4132559;28;20340;-94
2022/10/31 10:04:23;;;;;;;14.30;8.95;;;16.40;99.90;;;;;;4132541;28;20171;-94
2022/10/31 10:06:35;;;;;;;15.80;7.82;;;16.50;99.90;;;;;;4113215;28;20190;-90
2022/10/31 10:08:56;;;;;;;17.25;8.88;;;16.40;99.90;;;;;;4132808;28;20197;-95
2022/10/31 10:11:23;;;;;;;15.15;8.38;;;16.90;99.90;;;;;;4134926;28;20543;-90
2022/10/31 10:13:47;;;;;;;13.27;8.65;;;17.40;99.90;;;;;;4134121;28;20197;-96
2022/10/31 10:16:21;;;;;;;24.05;9.60;;;17.80;99.90;;;;;;4132091;28;20169;-89
2022/10/31 10:18:27;;;;;;;20.27;9.93;;;18.10;99.90;;;;;;4132209;28;20248;-90
2022/10/31 10:20:57;;;;;;;16.63;9.82;;;18.20;99.90;;;;;;4132694;28;20717;-94
2022/10/31 10:23:28;;;;;;;21.30;10.82;;;18.30;99.90;;;;;;4132377;28;20201;-94
2022/10/31 10:25:39;;;;;;;16.02;9.98;;;18.10;99.90;;;;;;4132107;28;20204;-93
2022/10/31 10:28:02;;;;;;;24.67;10.57;;;17.80;99.90;;;;;;4132146;28;20180;-94
2022/10/31 10:30:18;;;;;;;20.88;11.43;;;17.60;99.90;;;;;;4132419;28;20188;-90
2022/10/31 10:32:29;;;;;;;18.17;10.70;;;17.60;99.90;;;;;;4148657;28;20211;-89
2022/10/31 10:34:37;;;;;;;19.73;10.73;;;17.30;99.90;;;;;;4132377;28;20173;-90
2022/10/31 10:37:00;;;;;;;25.20;10.60;;;17.10;99.90;;;;;;4132376;28;20771;-90
2022/10/31 10:39:32;;;;;;;19.88;9.23;;;17.00;99.90;;;;;;4132292;28;20269;-90
2022/10/31 10:41:33;;;;;;;16.85;9.85;;;16.70;99.90;;;;;;4101484;28;20249;-91
2022/10/31 10:43:36;;;;;;;17.17;9.60;;;16.90;99.90;;;;;;4116369;28;20269;-89
2022/10/31 10:48:08;;;;;;;23.38;11.40;;;17.20;99.90;;;;;;4132165;28;20281;-95
2022/10/31 10:50:17;;;;;;;21.42;11.18;;;17.60;99.90;;;;;;4132309;28;20637;-89
2022/10/31 10:52:39;;;;;;;20.30;11.55;;;17.80;99.90;;;;;;4148313;28;20286;-89
2022/10/31 10:55:02;;;;;;;27.25;11.27;;;17.70;99.90;;;;;;4148301;28;20284;-90
2022/10/31 10:57:18;;;;;;;18.85;10.63;;;17.60;99.90;;;;;;4132181;28;20259;-90